sensor_id;sensor_type;location;lat;lon;timestamp;pressure;altitude;pressure_sealevel;temperature;humidity
7730;BME280;3908;52.310;7.230;2024-02-16T00:02:19;51825.88;;;-145.83;90.00
7730;BME280;3908;52.310;7.230;2024-02-16T00:05:06;51820.00;;;-145.83;90.07
7730;BME280;3908;52.310;7.230;2024-02-16T00:07:56;51810.22;;;-145.83;90.12
7730;BME280;3908;52.310;7.230;2024-02-16T00:10:44;51837.59;;;-145.83;90.27
7730;BME280;3908;52.310;7.230;2024-02-16T00:13:31;51837.59;;;-145.83;90.81
7730;BME280;3908;52.310;7.230;2024-02-16T00:16:19;51833.69;;;-145.83;90.94
7730;BME280;3908;52.310;7.230;2024-02-16T00:19:06;51853.25;;;-145.83;91.19
7730;BME280;3908;52.310;7.230;2024-02-16T00:21:54;51865.00;;;-145.83;91.48
7730;BME280;3908;52.310;7.230;2024-02-16T00:24:41;51839.56;;;-145.83;91.64
7730;BME280;3908;52.310;7.230;2024-02-16T00:27:30;51835.66;;;-145.83;91.75
7730;BME280;3908;52.310;7.230;2024-02-16T00:30:17;51778.91;;;-145.83;91.64
7730;BME280;3908;52.310;7.230;2024-02-16T00:33:04;51847.38;;;-145.83;91.75
7730;BME280;3908;52.310;7.230;2024-02-16T00:35:53;51800.44;;;-145.83;91.95
7730;BME280;3908;52.310;7.230;2024-02-16T00:38:40;51814.13;;;-145.83;91.94
7730;BME280;3908;52.310;7.230;2024-02-16T00:41:27;51812.16;;;-145.83;92.29
7730;BME280;3908;52.310;7.230;2024-02-16T00:44:16;51790.66;;;-145.83;92.53
7730;BME280;3908;52.310;7.230;2024-02-16T00:47:03;51810.22;;;-145.83;92.74
7730;BME280;3908;52.310;7.230;2024-02-16T00:49:51;51820.00;;;-145.83;93.16
7730;BME280;3908;52.310;7.230;2024-02-16T00:52:38;51829.78;;;-145.83;93.27
7730;BME280;3908;52.310;7.230;2024-02-16T00:55:26;51816.09;;;-145.83;93.31
7730;BME280;3908;52.310;7.230;2024-02-16T00:58:13;51810.22;;;-145.83;93.65
7730;BME280;3908;52.310;7.230;2024-02-16T01:01:01;51823.91;;;-145.83;93.41
7730;BME280;3908;52.310;7.230;2024-02-16T01:03:49;51808.25;;;-145.83;93.17
7730;BME280;3908;52.310;7.230;2024-02-16T01:06:37;51812.16;;;-145.83;93.38
7730;BME280;3908;52.310;7.230;2024-02-16T01:09:24;51786.72;;;-145.83;93.31
7730;BME280;3908;52.310;7.230;2024-02-16T01:12:12;51821.94;;;-145.83;93.84
7730;BME280;3908;52.310;7.230;2024-02-16T01:14:59;51823.91;;;-145.83;93.68
7730;BME280;3908;52.310;7.230;2024-02-16T01:17:48;51818.03;;;-145.83;93.56
7730;BME280;3908;52.310;7.230;2024-02-16T01:20:35;51771.09;;;-145.83;93.76
7730;BME280;3908;52.310;7.230;2024-02-16T01:23:22;51816.09;;;-145.83;93.90
7730;BME280;3908;52.310;7.230;2024-02-16T01:26:09;51806.31;;;-145.83;93.70
7730;BME280;3908;52.310;7.230;2024-02-16T01:28:56;51823.91;;;-145.83;93.79
7730;BME280;3908;52.310;7.230;2024-02-16T01:31:43;51835.66;;;-145.83;93.61
7730;BME280;3908;52.310;7.230;2024-02-16T01:34:32;51812.16;;;-145.83;92.95
7730;BME280;3908;52.310;7.230;2024-02-16T01:37:19;51825.88;;;-145.83;92.90
7730;BME280;3908;52.310;7.230;2024-02-16T01:40:07;51833.69;;;-145.83;92.96
7730;BME280;3908;52.310;7.230;2024-02-16T01:42:59;51794.56;;;-145.83;92.67
7730;BME280;3908;52.310;7.230;2024-02-16T01:45:46;51798.47;;;-145.83;92.68
7730;BME280;3908;52.310;7.230;2024-02-16T01:48:33;51812.16;;;-145.83;92.44
7730;BME280;3908;52.310;7.230;2024-02-16T01:51:23;51794.56;;;-145.83;92.20
7730;BME280;3908;52.310;7.230;2024-02-16T01:54:11;51786.72;;;-145.83;92.29
7730;BME280;3908;52.310;7.230;2024-02-16T01:56:59;51790.66;;;-145.83;92.15
7730;BME280;3908;52.310;7.230;2024-02-16T01:59:47;51812.16;;;-145.83;91.92
7730;BME280;3908;52.310;7.230;2024-02-16T02:02:34;51814.13;;;-145.83;92.07
7730;BME280;3908;52.310;7.230;2024-02-16T02:05:22;51816.09;;;-145.83;91.72
7730;BME280;3908;52.310;7.230;2024-02-16T02:08:11;51808.25;;;-145.83;91.82
7730;BME280;3908;52.310;7.230;2024-02-16T02:10:59;51835.66;;;-145.83;91.61
7730;BME280;3908;52.310;7.230;2024-02-16T02:13:46;51861.09;;;-145.83;91.46
7730;BME280;3908;52.310;7.230;2024-02-16T02:16:33;51829.78;;;-145.83;91.32
7730;BME280;3908;52.310;7.230;2024-02-16T02:19:20;51810.22;;;-145.83;91.24
7730;BME280;3908;52.310;7.230;2024-02-16T02:22:13;51810.22;;;-145.83;91.24
7730;BME280;3908;52.310;7.230;2024-02-16T02:25:00;51812.16;;;-145.83;91.38
7730;BME280;3908;52.310;7.230;2024-02-16T02:27:47;51788.69;;;-145.83;91.22
7730;BME280;3908;52.310;7.230;2024-02-16T02:30:34;51857.16;;;-145.83;91.30
7730;BME280;3908;52.310;7.230;2024-02-16T02:33:21;51839.56;;;-145.83;91.29
7730;BME280;3908;52.310;7.230;2024-02-16T02:36:08;51773.03;;;-145.83;91.16
7730;BME280;3908;52.310;7.230;2024-02-16T02:38:57;51812.16;;;-145.83;91.13
7730;BME280;3908;52.310;7.230;2024-02-16T02:41:44;51810.22;;;-145.83;91.37
7730;BME280;3908;52.310;7.230;2024-02-16T02:44:31;51808.25;;;-145.83;91.21
7730;BME280;3908;52.310;7.230;2024-02-16T02:47:18;51794.56;;;-145.83;91.20
7730;BME280;3908;52.310;7.230;2024-02-16T02:50:06;51798.47;;;-145.83;91.00
7730;BME280;3908;52.310;7.230;2024-02-16T02:52:54;51825.88;;;-145.83;90.97
7730;BME280;3908;52.310;7.230;2024-02-16T02:55:42;51802.38;;;-145.83;90.81
7730;BME280;3908;52.310;7.230;2024-02-16T02:58:29;51792.59;;;-145.83;90.76
7730;BME280;3908;52.310;7.230;2024-02-16T03:01:16;51806.31;;;-145.83;90.99
7730;BME280;3908;52.310;7.230;2024-02-16T03:04:06;51812.16;;;-145.83;90.94
7730;BME280;3908;52.310;7.230;2024-02-16T03:06:53;51786.72;;;-145.83;90.91
7730;BME280;3908;52.310;7.230;2024-02-16T03:09:40;51812.16;;;-145.83;90.87
7730;BME280;3908;52.310;7.230;2024-02-16T03:12:31;51796.53;;;-145.83;90.96
7730;BME280;3908;52.310;7.230;2024-02-16T03:15:18;51814.13;;;-145.83;91.25
7730;BME280;3908;52.310;7.230;2024-02-16T03:18:05;51782.81;;;-145.83;91.16
7730;BME280;3908;52.310;7.230;2024-02-16T03:20:54;51814.13;;;-145.83;90.85
7730;BME280;3908;52.310;7.230;2024-02-16T03:23:41;51802.38;;;-145.83;90.83
7730;BME280;3908;52.310;7.230;2024-02-16T03:26:28;51802.38;;;-145.83;90.85
7730;BME280;3908;52.310;7.230;2024-02-16T03:29:17;51833.69;;;-145.83;91.02
7730;BME280;3908;52.310;7.230;2024-02-16T03:32:04;51794.56;;;-145.83;90.95
7730;BME280;3908;52.310;7.230;2024-02-16T03:34:51;51776.94;;;-145.83;91.26
7730;BME280;3908;52.310;7.230;2024-02-16T03:37:38;51812.16;;;-145.83;91.20
7730;BME280;3908;52.310;7.230;2024-02-16T03:40:25;51820.00;;;-145.83;91.24
7730;BME280;3908;52.310;7.230;2024-02-16T03:43:13;51812.16;;;-145.83;91.11
7730;BME280;3908;52.310;7.230;2024-02-16T03:46:01;51825.88;;;-145.83;90.86
7730;BME280;3908;52.310;7.230;2024-02-16T03:48:49;51821.94;;;-145.83;90.45
7730;BME280;3908;52.310;7.230;2024-02-16T03:51:36;51794.56;;;-145.83;90.34
7730;BME280;3908;52.310;7.230;2024-02-16T03:54:23;51820.00;;;-145.83;90.53
7730;BME280;3908;52.310;7.230;2024-02-16T03:57:10;51806.31;;;-145.83;90.29
7730;BME280;3908;52.310;7.230;2024-02-16T03:59:57;51829.78;;;-145.83;90.94
7730;BME280;3908;52.310;7.230;2024-02-16T04:02:46;51792.59;;;-145.83;91.07
7730;BME280;3908;52.310;7.230;2024-02-16T04:05:33;51812.16;;;-145.83;91.32
7730;BME280;3908;52.310;7.230;2024-02-16T04:08:20;51792.59;;;-145.83;91.12
7730;BME280;3908;52.310;7.230;2024-02-16T04:11:07;51833.69;;;-145.83;91.58
7730;BME280;3908;52.310;7.230;2024-02-16T04:13:57;51816.09;;;-145.83;91.43
7730;BME280;3908;52.310;7.230;2024-02-16T04:16:44;51794.56;;;-145.83;91.31
7730;BME280;3908;52.310;7.230;2024-02-16T04:19:33;51800.44;;;-145.83;91.02
7730;BME280;3908;52.310;7.230;2024-02-16T04:22:20;51823.91;;;-145.83;90.75
7730;BME280;3908;52.310;7.230;2024-02-16T04:25:07;51784.78;;;-145.83;90.66
7730;BME280;3908;52.310;7.230;2024-02-16T04:27:55;51841.53;;;-145.83;90.73
7730;BME280;3908;52.310;7.230;2024-02-16T04:30:42;51816.09;;;-145.83;90.87
7730;BME280;3908;52.310;7.230;2024-02-16T04:33:29;51827.81;;;-145.83;91.29
7730;BME280;3908;52.310;7.230;2024-02-16T04:36:18;51827.81;;;-145.83;92.07
7730;BME280;3908;52.310;7.230;2024-02-16T04:39:05;51823.91;;;-145.83;92.38
7730;BME280;3908;52.310;7.230;2024-02-16T04:41:52;51831.75;;;-145.83;92.79
7730;BME280;3908;52.310;7.230;2024-02-16T04:44:39;51816.09;;;-145.83;92.79
7730;BME280;3908;52.310;7.230;2024-02-16T04:47:26;51825.88;;;-145.83;92.61
7730;BME280;3908;52.310;7.230;2024-02-16T04:50:13;51798.47;;;-145.83;92.67
7730;BME280;3908;52.310;7.230;2024-02-16T04:53:02;51802.38;;;-145.83;92.94
7730;BME280;3908;52.310;7.230;2024-02-16T04:55:49;51796.53;;;-145.83;93.03
7730;BME280;3908;52.310;7.230;2024-02-16T04:58:40;51820.00;;;-145.83;93.16
7730;BME280;3908;52.310;7.230;2024-02-16T05:01:27;51796.53;;;-145.83;93.17
7730;BME280;3908;52.310;7.230;2024-02-16T05:04:15;51802.38;;;-145.83;93.20
7730;BME280;3908;52.310;7.230;2024-02-16T05:07:03;51821.94;;;-145.83;93.07
7730;BME280;3908;52.310;7.230;2024-02-16T05:09:51;51837.59;;;-145.83;92.95
7730;BME280;3908;52.310;7.230;2024-02-16T05:12:43;51794.56;;;-145.83;92.97
7730;BME280;3908;52.310;7.230;2024-02-16T05:15:31;51821.94;;;-145.83;92.74
7730;BME280;3908;52.310;7.230;2024-02-16T05:18:21;51861.09;;;-145.83;92.42
7730;BME280;3908;52.310;7.230;2024-02-16T05:21:08;51814.13;;;-145.83;92.48
7730;BME280;3908;52.310;7.230;2024-02-16T05:23:56;51796.53;;;-145.83;92.40
7730;BME280;3908;52.310;7.230;2024-02-16T05:26:44;51833.69;;;-145.83;92.39
7730;BME280;3908;52.310;7.230;2024-02-16T05:29:31;51833.69;;;-145.83;92.43
7730;BME280;3908;52.310;7.230;2024-02-16T05:32:18;51831.75;;;-145.83;92.23
7730;BME280;3908;52.310;7.230;2024-02-16T05:35:07;51821.94;;;-145.83;92.21
7730;BME280;3908;52.310;7.230;2024-02-16T05:37:57;51831.75;;;-145.83;91.53
7730;BME280;3908;52.310;7.230;2024-02-16T05:40:45;51776.94;;;-145.83;91.16
7730;BME280;3908;52.310;7.230;2024-02-16T05:43:42;51833.69;;;-145.83;90.62
7730;BME280;3908;52.310;7.230;2024-02-16T05:46:30;51806.31;;;-145.83;90.56
7730;BME280;3908;52.310;7.230;2024-02-16T05:49:17;51829.78;;;-145.83;90.55
7730;BME280;3908;52.310;7.230;2024-02-16T05:52:05;51841.53;;;-145.83;90.64
7730;BME280;3908;52.310;7.230;2024-02-16T05:55:06;51816.09;;;-145.83;90.77
7730;BME280;3908;52.310;7.230;2024-02-16T05:57:53;51780.88;;;-145.83;90.97
7730;BME280;3908;52.310;7.230;2024-02-16T06:00:42;51808.25;;;-145.83;91.07
7730;BME280;3908;52.310;7.230;2024-02-16T06:03:29;51833.69;;;-145.83;91.08
7730;BME280;3908;52.310;7.230;2024-02-16T06:06:17;51821.94;;;-145.83;90.80
7730;BME280;3908;52.310;7.230;2024-02-16T06:09:04;51825.88;;;-145.83;90.69
7730;BME280;3908;52.310;7.230;2024-02-16T06:11:52;51798.47;;;-145.83;90.39
7730;BME280;3908;52.310;7.230;2024-02-16T06:14:42;51812.16;;;-145.83;90.40
7730;BME280;3908;52.310;7.230;2024-02-16T06:17:30;51847.38;;;-145.83;90.08
7730;BME280;3908;52.310;7.230;2024-02-16T06:20:18;51790.66;;;-145.83;90.12
7730;BME280;3908;52.310;7.230;2024-02-16T06:23:05;51820.00;;;-145.83;90.22
7730;BME280;3908;52.310;7.230;2024-02-16T06:25:52;51837.59;;;-145.83;90.11
7730;BME280;3908;52.310;7.230;2024-02-16T06:28:39;51812.16;;;-145.83;90.13
7730;BME280;3908;52.310;7.230;2024-02-16T06:31:26;51794.56;;;-145.83;90.27
7730;BME280;3908;52.310;7.230;2024-02-16T06:34:15;51788.69;;;-145.83;90.33
7730;BME280;3908;52.310;7.230;2024-02-16T06:37:02;51796.53;;;-145.83;90.13
7730;BME280;3908;52.310;7.230;2024-02-16T06:39:49;51823.91;;;-145.83;90.24
7730;BME280;3908;52.310;7.230;2024-02-16T06:42:36;51816.09;;;-145.83;90.59
7730;BME280;3908;52.310;7.230;2024-02-16T06:45:23;51816.09;;;-145.83;90.92
7730;BME280;3908;52.310;7.230;2024-02-16T06:48:11;51814.13;;;-145.83;91.09
7730;BME280;3908;52.310;7.230;2024-02-16T06:50:59;51825.88;;;-145.83;90.96
7730;BME280;3908;52.310;7.230;2024-02-16T06:53:47;51814.13;;;-145.83;91.04
7730;BME280;3908;52.310;7.230;2024-02-16T06:56:34;51837.59;;;-145.83;91.12
7730;BME280;3908;52.310;7.230;2024-02-16T06:59:21;51812.16;;;-145.83;90.82
7730;BME280;3908;52.310;7.230;2024-02-16T07:02:08;51829.78;;;-145.83;90.73
7730;BME280;3908;52.310;7.230;2024-02-16T07:04:56;51790.66;;;-145.83;90.44
7730;BME280;3908;52.310;7.230;2024-02-16T07:07:45;51810.22;;;-145.83;90.17
7730;BME280;3908;52.310;7.230;2024-02-16T07:10:32;51796.53;;;-145.83;89.99
7730;BME280;3908;52.310;7.230;2024-02-16T07:13:20;51839.56;;;-145.83;90.13
7730;BME280;3908;52.310;7.230;2024-02-16T07:16:07;51790.66;;;-145.83;89.93
7730;BME280;3908;52.310;7.230;2024-02-16T07:18:55;51853.25;;;-145.83;90.39
7730;BME280;3908;52.310;7.230;2024-02-16T07:21:42;51825.88;;;-145.83;90.29
7730;BME280;3908;52.310;7.230;2024-02-16T07:24:31;51771.09;;;-145.83;89.93
7730;BME280;3908;52.310;7.230;2024-02-16T07:27:18;51829.78;;;-145.83;90.35
7730;BME280;3908;52.310;7.230;2024-02-16T07:30:07;51818.03;;;-145.83;89.90
7730;BME280;3908;52.310;7.230;2024-02-16T07:32:56;51810.22;;;-145.83;90.15
7730;BME280;3908;52.310;7.230;2024-02-16T07:35:43;51818.03;;;-145.83;90.01
7730;BME280;3908;52.310;7.230;2024-02-16T07:38:31;51810.22;;;-145.83;89.89
7730;BME280;3908;52.310;7.230;2024-02-16T07:41:19;51851.31;;;-145.83;89.72
7730;BME280;3908;52.310;7.230;2024-02-16T07:44:06;51818.03;;;-145.83;89.68
7730;BME280;3908;52.310;7.230;2024-02-16T07:46:53;51855.22;;;-145.83;89.41
7730;BME280;3908;52.310;7.230;2024-02-16T07:49:41;51839.56;;;-145.83;89.73
7730;BME280;3908;52.310;7.230;2024-02-16T07:52:28;51812.16;;;-145.83;89.33
7730;BME280;3908;52.310;7.230;2024-02-16T07:55:15;51800.44;;;-145.83;88.77
7730;BME280;3908;52.310;7.230;2024-02-16T07:58:05;51841.53;;;-145.83;88.24
7730;BME280;3908;52.310;7.230;2024-02-16T08:00:52;51818.03;;;-145.83;88.06
7730;BME280;3908;52.310;7.230;2024-02-16T08:03:41;51792.59;;;-145.83;87.60
7730;BME280;3908;52.310;7.230;2024-02-16T08:06:28;51855.22;;;-145.83;87.47
7730;BME280;3908;52.310;7.230;2024-02-16T08:09:15;51818.03;;;-145.83;86.75
7730;BME280;3908;52.310;7.230;2024-02-16T08:12:03;51851.31;;;-145.83;86.35
7730;BME280;3908;52.310;7.230;2024-02-16T08:14:53;51833.69;;;-145.83;85.98
7730;BME280;3908;52.310;7.230;2024-02-16T08:17:42;51792.59;;;-145.83;85.85
7730;BME280;3908;52.310;7.230;2024-02-16T08:20:32;51843.47;;;-145.83;85.44
7730;BME280;3908;52.310;7.230;2024-02-16T08:23:19;51833.69;;;-145.83;85.49
7730;BME280;3908;52.310;7.230;2024-02-16T08:26:06;51847.38;;;-145.83;85.56
7730;BME280;3908;52.310;7.230;2024-02-16T08:28:53;51843.47;;;-145.83;85.07
7730;BME280;3908;52.310;7.230;2024-02-16T08:31:43;51841.53;;;-145.83;85.30
7730;BME280;3908;52.310;7.230;2024-02-16T08:34:30;51820.00;;;-145.83;85.46
7730;BME280;3908;52.310;7.230;2024-02-16T08:37:18;51829.78;;;-145.83;84.91
7730;BME280;3908;52.310;7.230;2024-02-16T08:40:06;51839.56;;;-145.83;84.89
7730;BME280;3908;52.310;7.230;2024-02-16T08:42:59;51849.34;;;-145.83;84.93
7730;BME280;3908;52.310;7.230;2024-02-16T08:45:48;51831.75;;;-145.83;84.18
7730;BME280;3908;52.310;7.230;2024-02-16T08:51:12;51841.53;;;-145.83;83.52
7730;BME280;3908;52.310;7.230;2024-02-16T08:53:59;51827.81;;;-145.83;81.87
7730;BME280;3908;52.310;7.230;2024-02-16T08:56:46;51878.69;;;-145.83;82.25
7730;BME280;3908;52.310;7.230;2024-02-16T08:59:33;51876.75;;;-145.83;81.42
7730;BME280;3908;52.310;7.230;2024-02-16T09:02:21;51857.16;;;-145.83;81.11
7730;BME280;3908;52.310;7.230;2024-02-16T09:05:08;51829.78;;;-145.83;81.00
7730;BME280;3908;52.310;7.230;2024-02-16T09:07:57;51878.69;;;-145.83;80.58
7730;BME280;3908;52.310;7.230;2024-02-16T09:10:44;51841.53;;;-145.83;80.07
7730;BME280;3908;52.310;7.230;2024-02-16T09:13:32;51839.56;;;-145.83;80.30
7730;BME280;3908;52.310;7.230;2024-02-16T09:16:19;51863.03;;;-145.83;80.27
7730;BME280;3908;52.310;7.230;2024-02-16T09:19:06;51812.16;;;-145.83;80.99
7730;BME280;3908;52.310;7.230;2024-02-16T09:21:53;51849.34;;;-145.83;80.88
7730;BME280;3908;52.310;7.230;2024-02-16T09:24:49;51827.81;;;-145.83;81.15
7730;BME280;3908;52.310;7.230;2024-02-16T09:27:36;51876.75;;;-145.83;80.86
7730;BME280;3908;52.310;7.230;2024-02-16T09:30:26;51841.53;;;-145.83;81.37
7730;BME280;3908;52.310;7.230;2024-02-16T09:33:13;51818.03;;;-145.83;81.61
7730;BME280;3908;52.310;7.230;2024-02-16T09:36:00;51853.25;;;-145.83;81.99
7730;BME280;3908;52.310;7.230;2024-02-16T09:38:47;51855.22;;;-145.83;81.56
7730;BME280;3908;52.310;7.230;2024-02-16T09:41:36;51851.31;;;-145.83;81.37
7730;BME280;3908;52.310;7.230;2024-02-16T09:46:59;51868.91;;;-145.83;80.18
7730;BME280;3908;52.310;7.230;2024-02-16T09:49:49;51863.03;;;-145.83;79.43
7730;BME280;3908;52.310;7.230;2024-02-16T09:55:12;51853.25;;;-145.83;79.30
7730;BME280;3908;52.310;7.230;2024-02-16T10:00:36;51841.53;;;-145.83;79.11
7730;BME280;3908;52.310;7.230;2024-02-16T10:03:24;51870.88;;;-145.83;79.77
7730;BME280;3908;52.310;7.230;2024-02-16T10:08:48;51872.81;;;-145.83;80.00
7730;BME280;3908;52.310;7.230;2024-02-16T10:37:29;51886.53;;;-145.83;82.52
7730;BME280;3908;52.310;7.230;2024-02-16T10:40:18;51843.47;;;-145.83;82.71
7730;BME280;3908;52.310;7.230;2024-02-16T10:43:07;51831.75;;;-145.83;82.91
7730;BME280;3908;52.310;7.230;2024-02-16T10:45:56;51839.56;;;-145.83;83.06
7730;BME280;3908;52.310;7.230;2024-02-16T10:48:43;51843.47;;;-145.83;83.20
7730;BME280;3908;52.310;7.230;2024-02-16T10:51:34;51861.09;;;-145.83;82.40
7730;BME280;3908;52.310;7.230;2024-02-16T11:04:46;51814.13;;;-145.83;81.92
7730;BME280;3908;52.310;7.230;2024-02-16T11:07:34;51849.34;;;-145.83;81.11
7730;BME280;3908;52.310;7.230;2024-02-16T11:10:21;51851.31;;;-145.83;81.12
7730;BME280;3908;52.310;7.230;2024-02-16T11:13:09;51827.81;;;-145.83;81.22
7730;BME280;3908;52.310;7.230;2024-02-16T11:15:57;51825.88;;;-145.83;81.13
7730;BME280;3908;52.310;7.230;2024-02-16T11:18:45;51845.44;;;-145.83;81.37
7730;BME280;3908;52.310;7.230;2024-02-16T11:21:36;51827.81;;;-145.83;80.54
7730;BME280;3908;52.310;7.230;2024-02-16T11:24:29;51866.94;;;-145.83;81.04
7730;BME280;3908;52.310;7.230;2024-02-16T11:27:17;51853.25;;;-145.83;79.92
7730;BME280;3908;52.310;7.230;2024-02-16T11:30:10;51855.22;;;-145.83;79.65
7730;BME280;3908;52.310;7.230;2024-02-16T11:32:57;51884.56;;;-145.83;79.51
7730;BME280;3908;52.310;7.230;2024-02-16T11:35:52;51866.94;;;-145.83;79.69
7730;BME280;3908;52.310;7.230;2024-02-16T11:38:41;51853.25;;;-145.83;80.19
7730;BME280;3908;52.310;7.230;2024-02-16T11:41:28;51863.03;;;-145.83;79.89
7730;BME280;3908;52.310;7.230;2024-02-16T11:44:15;51835.66;;;-145.83;80.12
7730;BME280;3908;52.310;7.230;2024-02-16T11:47:03;51829.78;;;-145.83;81.54
7730;BME280;3908;52.310;7.230;2024-02-16T11:50:03;51878.69;;;-145.83;82.98
7730;BME280;3908;52.310;7.230;2024-02-16T11:52:50;51847.38;;;-145.83;83.80
7730;BME280;3908;52.310;7.230;2024-02-16T11:55:39;51837.59;;;-145.83;84.25
7730;BME280;3908;52.310;7.230;2024-02-16T11:58:33;51855.22;;;-145.83;84.08
7730;BME280;3908;52.310;7.230;2024-02-16T12:01:20;51829.78;;;-145.83;84.95
7730;BME280;3908;52.310;7.230;2024-02-16T12:04:07;51861.09;;;-145.83;85.36
7730;BME280;3908;52.310;7.230;2024-02-16T12:06:55;51843.47;;;-145.83;86.11
7730;BME280;3908;52.310;7.230;2024-02-16T12:09:43;51837.59;;;-145.83;87.60
7730;BME280;3908;52.310;7.230;2024-02-16T12:12:31;51837.59;;;-145.83;89.20
7730;BME280;3908;52.310;7.230;2024-02-16T12:15:19;51843.47;;;-145.83;90.89
7730;BME280;3908;52.310;7.230;2024-02-16T12:28:31;51827.81;;;-145.83;95.64
7730;BME280;3908;52.310;7.230;2024-02-16T12:33:53;51851.31;;;-145.83;97.17
7730;BME280;3908;52.310;7.230;2024-02-16T12:36:42;51853.25;;;-145.83;97.75
7730;BME280;3908;52.310;7.230;2024-02-16T12:49:55;51872.81;;;-145.83;100.00
7730;BME280;3908;52.310;7.230;2024-02-16T12:52:43;51886.53;;;-145.83;100.00
7730;BME280;3908;52.310;7.230;2024-02-16T12:55:30;51823.91;;;-145.83;100.00
7730;BME280;3908;52.310;7.230;2024-02-16T12:58:17;51833.69;;;-145.83;100.00
7730;BME280;3908;52.310;7.230;2024-02-16T16:02:01;51892.38;;;-145.83;100.00
7730;BME280;3908;52.310;7.230;2024-02-16T16:04:48;51849.34;;;-145.83;100.00
7730;BME280;3908;52.310;7.230;2024-02-16T16:07:35;51847.38;;;-145.83;100.00
7730;BME280;3908;52.310;7.230;2024-02-16T16:10:23;51825.88;;;-145.83;100.00
7730;BME280;3908;52.310;7.230;2024-02-16T16:13:10;51866.94;;;-145.83;100.00
7730;BME280;3908;52.310;7.230;2024-02-16T16:21:09;51833.69;;;-145.83;100.00
7730;BME280;3908;52.310;7.230;2024-02-16T16:23:56;51812.16;;;-145.83;100.00
7730;BME280;3908;52.310;7.230;2024-02-16T16:26:43;51831.75;;;-145.83;100.00
7730;BME280;3908;52.310;7.230;2024-02-16T16:29:30;51835.66;;;-145.83;100.00
7730;BME280;3908;52.310;7.230;2024-02-16T16:32:17;51816.09;;;-145.83;100.00
7730;BME280;3908;52.310;7.230;2024-02-16T16:35:05;51835.66;;;-145.83;100.00
7730;BME280;3908;52.310;7.230;2024-02-16T16:37:53;51837.59;;;-145.83;100.00
7730;BME280;3908;52.310;7.230;2024-02-16T16:40:40;51808.25;;;-145.83;100.00
7730;BME280;3908;52.310;7.230;2024-02-16T16:46:00;51814.13;;;-145.83;100.00
7730;BME280;3908;52.310;7.230;2024-02-16T16:48:48;51861.09;;;-145.83;100.00
7730;BME280;3908;52.310;7.230;2024-02-16T16:51:35;51843.47;;;-145.83;100.00
7730;BME280;3908;52.310;7.230;2024-02-16T16:54:24;51839.56;;;-145.83;100.00
7730;BME280;3908;52.310;7.230;2024-02-16T16:57:11;51821.94;;;-145.83;100.00
7730;BME280;3908;52.310;7.230;2024-02-16T16:59:58;51863.03;;;-145.83;100.00
7730;BME280;3908;52.310;7.230;2024-02-16T17:02:45;51853.25;;;-145.83;100.00
7730;BME280;3908;52.310;7.230;2024-02-16T17:05:33;51821.94;;;-145.83;100.00
7730;BME280;3908;52.310;7.230;2024-02-16T17:08:21;51843.47;;;-145.83;100.00
7730;BME280;3908;52.310;7.230;2024-02-16T17:11:10;51827.81;;;-145.83;100.00
7730;BME280;3908;52.310;7.230;2024-02-16T17:13:57;51798.47;;;-145.83;100.00
7730;BME280;3908;52.310;7.230;2024-02-16T17:16:45;51837.59;;;-145.83;100.00
7730;BME280;3908;52.310;7.230;2024-02-16T17:19:33;51808.25;;;-145.83;100.00
7730;BME280;3908;52.310;7.230;2024-02-16T17:22:20;51816.09;;;-145.83;100.00
7730;BME280;3908;52.310;7.230;2024-02-16T17:25:07;51798.47;;;-145.83;100.00
7730;BME280;3908;52.310;7.230;2024-02-16T17:27:56;51823.91;;;-145.83;100.00
7730;BME280;3908;52.310;7.230;2024-02-16T17:30:43;51818.03;;;-145.83;100.00
7730;BME280;3908;52.310;7.230;2024-02-16T17:33:32;51829.78;;;-145.83;100.00
7730;BME280;3908;52.310;7.230;2024-02-16T17:36:19;51812.16;;;-145.83;100.00
7730;BME280;3908;52.310;7.230;2024-02-16T17:39:06;51837.59;;;-145.83;100.00
7730;BME280;3908;52.310;7.230;2024-02-16T17:41:55;51847.38;;;-145.83;100.00
7730;BME280;3908;52.310;7.230;2024-02-16T17:44:44;51810.22;;;-145.83;99.90
7730;BME280;3908;52.310;7.230;2024-02-16T17:47:31;51841.53;;;-145.83;98.99
7730;BME280;3908;52.310;7.230;2024-02-16T17:50:19;51814.13;;;-145.83;98.68
7730;BME280;3908;52.310;7.230;2024-02-16T17:53:06;51831.75;;;-145.83;98.39
7730;BME280;3908;52.310;7.230;2024-02-16T17:55:53;51825.88;;;-145.83;98.47
7730;BME280;3908;52.310;7.230;2024-02-16T17:58:40;51825.88;;;-145.83;98.25
7730;BME280;3908;52.310;7.230;2024-02-16T18:01:28;51841.53;;;-145.83;98.55
7730;BME280;3908;52.310;7.230;2024-02-16T18:04:15;51835.66;;;-145.83;98.68
7730;BME280;3908;52.310;7.230;2024-02-16T18:07:03;51814.13;;;-145.83;98.51
7730;BME280;3908;52.310;7.230;2024-02-16T18:09:50;51816.09;;;-145.83;98.18
7730;BME280;3908;52.310;7.230;2024-02-16T18:12:38;51775.00;;;-145.83;98.24
7730;BME280;3908;52.310;7.230;2024-02-16T18:15:25;51831.75;;;-145.83;98.06
7730;BME280;3908;52.310;7.230;2024-02-16T18:18:14;51808.25;;;-145.83;98.44
7730;BME280;3908;52.310;7.230;2024-02-16T18:21:01;51821.94;;;-145.83;98.16
7730;BME280;3908;52.310;7.230;2024-02-16T18:23:48;51857.16;;;-145.83;98.38
7730;BME280;3908;52.310;7.230;2024-02-16T18:26:35;51823.91;;;-145.83;98.25
7730;BME280;3908;52.310;7.230;2024-02-16T18:29:22;51814.13;;;-145.83;98.36
7730;BME280;3908;52.310;7.230;2024-02-16T18:32:10;51806.31;;;-145.83;98.70
7730;BME280;3908;52.310;7.230;2024-02-16T18:34:59;51816.09;;;-145.83;98.74
7730;BME280;3908;52.310;7.230;2024-02-16T18:37:46;51812.16;;;-145.83;98.76
7730;BME280;3908;52.310;7.230;2024-02-16T18:40:34;51831.75;;;-145.83;99.49
7730;BME280;3908;52.310;7.230;2024-02-16T18:43:21;51792.59;;;-145.83;99.91
7730;BME280;3908;52.310;7.230;2024-02-16T18:46:08;51823.91;;;-145.83;100.00
7730;BME280;3908;52.310;7.230;2024-02-16T18:48:55;51806.31;;;-145.83;99.75
7730;BME280;3908;52.310;7.230;2024-02-16T18:51:44;51835.66;;;-145.83;99.38
7730;BME280;3908;52.310;7.230;2024-02-16T18:54:31;51845.44;;;-145.83;99.50
7730;BME280;3908;52.310;7.230;2024-02-16T18:57:18;51825.88;;;-145.83;99.33
7730;BME280;3908;52.310;7.230;2024-02-16T19:00:06;51823.91;;;-145.83;99.20
7730;BME280;3908;52.310;7.230;2024-02-16T19:02:54;51835.66;;;-145.83;99.01
7730;BME280;3908;52.310;7.230;2024-02-16T19:05:41;51810.22;;;-145.83;99.33
7730;BME280;3908;52.310;7.230;2024-02-16T19:08:30;51814.13;;;-145.83;99.20
7730;BME280;3908;52.310;7.230;2024-02-16T19:11:18;51821.94;;;-145.83;99.52